Del Mar Heights (610) Station Data

Red Flag Warning: No
Fire Weather Zone: 243
SDGE Region: North Coast
Lat/Lon: 32.964/-117.223

Observations

Time Wind Speed/Gust Temp(F) RH Fuel Moist Fuel Temp(F) Dewpt(F) Tmax(F) Tmin(F) Accum Precip 10-min Precip SL Press(mb)
6/27 5:00pm 289 7 G 11 70° 77% - - 63° 75.8° 60.2° - - -
6/27 4:50pm 285 7 G 12 71° 75% - - 63° 75.8° 60.2° - - -
6/27 4:40pm 293 7 G 11 71° 77% - - 63° 75.8° 60.2° - - -
6/27 4:30pm 299 8 G 13 71° 75% - - 63° 75.8° 60.2° - - -
6/27 4:20pm 309 9 G 14 71° 76% - - 63° 75.8° 60.2° - - -
6/27 4:10pm 306 10 G 16 71° 76% - - 63° 75.8° 60.2° - - -
6/27 4:00pm 305 10 G 15 72° 74% - - 63° 75.8° 60.2° - - -
6/27 3:50pm 312 11 G 16 72° 73% - - 63° 75.8° 60.2° - - -
6/27 3:40pm 309 10 G 15 73° 69% - - 62° 75.8° 60.2° - - -
6/27 3:30pm 312 9 G 12 74° 65% - - 62° 75.8° 60.2° - - -
6/27 3:20pm 304 9 G 14 74° 64% - - 61° 75.8° 60.2° - - -
6/27 3:10pm 295 9 G 13 74° 62% - - 60° 75.8° 60.2° - - -
6/27 3:00pm 290 8 G 13 74° 64% - - 61° 75.8° 60.2° - - -
6/27 2:50pm 309 9 G 14 74° 68% - - 62° 75.5° 60.2° - - -
6/27 2:40pm 301 9 G 15 72° 71% - - 62° 75.5° 60.2° - - -
6/27 2:30pm 287 9 G 15 72° 71% - - 63° 75.5° 60.2° - - -
6/27 2:20pm 283 9 G 14 74° 68% - - 62° 75.5° 60.2° - - -
6/27 2:10pm 310 9 G 16 73° 70% - - 63° 75.5° 60.2° - - -
6/27 2:00pm 311 11 G 16 72° 74% - - 63° 74.8° 60.2° - - -
6/27 1:50pm 307 11 G 16 72° 75% - - 64° 74.8° 60.2° - - -
6/27 1:40pm 321 11 G 16 73° 74% - - 64° 74.8° 60.2° - - -
6/27 1:30pm 299 9 G 18 73° 74% - - 64° 74.8° 60.2° - - -
6/27 1:20pm 291 10 G 17 72° 77% - - 64° 74.8° 60.2° - - -
6/27 1:10pm 297 11 G 15 73° 76% - - 65° 74.8° 60.2° - - -
6/27 1:00pm 291 11 G 16 73° 75% - - 65° 74.8° 60.2° - - -
6/27 12:50pm 294 10 G 15 73° 75% - - 65° 74.8° 60.2° - - -
6/27 12:40pm 297 10 G 15 72° 75% - - 64° 74.8° 60.2° - - -
6/27 12:30pm 291 8 G 14 73° 72% - - 64° 74.8° 60.2° - - -
6/27 12:20pm 295 9 G 14 73° 72% - - 64° 74.8° 60.2° - - -
6/27 12:10pm 304 9 G 14 73° 73% - - 64° 74.8° 60.2° - - -
6/27 12:00pm 297 9 G 17 73° 74% - - 64° 74.8° 60.2° - - -
6/27 11:50am 297 10 G 15 72° 75% - - 64° 74.8° 60.2° - - -
6/27 11:40am 302 11 G 15 72° 74% - - 63° 74.8° 60.2° - - -
6/27 11:30am 298 9 G 13 73° 73% - - 64° 74.8° 60.2° - - -
6/27 11:20am 292 10 G 14 72° 74% - - 63° 74.8° 60.2° - - -
6/27 11:10am 295 8 G 13 74° 71% - - 64° 74.8° 60.2° - - -
6/27 11:00am 291 7 G 12 74° 72% - - 64° 74.8° 60.2° - - -
6/27 10:50am 295 8 G 12 73° 74% - - 65° 74.8° 60.2° - - -
6/27 10:40am 295 7 G 10 73° 74% - - 65° 74.8° 60.2° - - -
6/27 10:30am 294 7 G 11 73° 74% - - 64° 74.8° 60.2° - - -
6/27 10:20am 294 6 G 9 73° 76% - - 64° 73.4° 60.2° - - -
6/27 10:10am 289 6 G 10 72° 77% - - 64° 72.7° 60.2° - - -
6/27 10:00am 294 7 G 10 71° 78% - - 64° 72.7° 60.2° - - -
6/27 9:50am 292 7 G 10 71° 78% - - 64° 72.7° 60.2° - - -
6/27 9:40am 283 7 G 10 70° 80% - - 64° 72.7° 60.2° - - -
6/27 9:30am 283 7 G 10 70° 80% - - 64° 72.7° 60.2° - - -
6/27 9:20am 286 6 G 9 71° 78% - - 64° 72.7° 60.2° - - -
6/27 9:10am 295 6 G 9 72° 77% - - 64° 72.7° 60.2° - - -
6/27 9:00am 305 5 G 8 72° 76% - - 64° 72.7° 60.2° - - -
6/27 8:50am 315 4 G 7 71° 77% - - 64° 72.1° 60.2° - - -
6/27 8:30am 340 3 G 5 69° 84% - - 64° 69.8° 60.2° - - -
6/27 8:20am 332 2 G 5 68° 86% - - 64° 68.8° 60.2° - - -
6/27 8:10am 338 2 G 3 67° 88% - - 63° 67.7° 60.2° - - -
6/27 8:00am 334 2 G 4 66° 89% - - 63° 67.2° 60.2° - - -
6/27 7:40am 7 1 G 2 66° 90% - - 63° 67.2° 60.2° - - -
6/27 7:30am 11 1 G 2 65° 92% - - 63° 67.2° 60.2° - - -
6/27 7:20am 23 1 G 2 65° 94% - - 63° 67.2° 60.2° - - -
6/27 7:10am 48 0 G 1 64° 96% - - 63° 67.2° 60.2° - - -
6/27 7:00am 93 1 G 2 63° 97% - - 62° 67.2° 60.2° - - -
6/27 6:50am 142 2 G 3 62° 97% - - 61° 67.2° 60.2° - - -
6/27 6:40am 83 1 G 2 61° 97% - - 60° 67.2° 60.2° - - -
6/27 6:30am 10 1 G 2 62° 96% - - 61° 67.2° 60.3° - - -
6/27 6:20am 328 1 G 2 63° 97% - - 62° 67.2° 62.2° - - -
6/27 6:10am 243 1 G 3 64° 97% - - 63° 67.2° 62.3° - - -
6/27 6:00am 203 1 G 3 64° 97% - - 63° 67.2° 62.3° - - -
6/27 5:50am 170 2 G 4 63° 97% - - 63° 67.2° 62.3° - - -
6/27 5:40am 194 1 G 3 63° 96% - - 62° 67.2° 62.3° - - -
6/27 5:30am 198 2 G 3 64° 96% - - 63° 67.2° 62.3° - - -
6/27 5:20am 220 2 G 3 64° 96% - - 62° 67.2° 62.3° - - -
6/27 5:10am 281 1 G 2 64° 96% - - 63° 67.2° 62.3° - - -
6/27 5:00am 232 1 G 3 65° 96% - - 63° 67.2° 62.3° - - -
6/27 4:50am 222 2 G 3 64° 97% - - 63° 67.2° 62.3° - - -
6/27 4:40am 203 2 G 4 64° 97% - - 63° 67.2° 62.3° - - -
6/27 4:30am 224 4 G 5 64° 97% - - 63° 67.2° 62.3° - - -
6/27 4:20am 235 3 G 4 64° 97% - - 63° 67.2° 62.3° - - -
6/27 4:10am 116 1 G 2 63° 96% - - 62° 67.2° 62.3° - - -
6/27 4:00am 77 0 G 2 63° 96% - - 62° 67.2° 62.3° - - -
6/27 3:50am 45 1 G 2 63° 95% - - 61° 67.2° 62.3° - - -
6/27 3:40am 332 1 G 2 64° 94% - - 62° 67.2° 63° - - -
6/27 3:30am 323 1 G 2 64° 93% - - 62° 67.2° 63.5° - - -
6/27 3:20am 331 0 G 1 64° 93% - - 62° 67.2° 64.1° - - -
6/27 3:10am 276 0 G 1 65° 92% - - 62° 67.2° 64.1° - - -
6/27 3:00am 269 1 G 3 65° 91% - - 63° 67.2° 64.5° - - -
6/27 2:50am 261 3 G 5 65° 91% - - 63° 67.2° 64.5° - - -
6/27 2:40am 273 1 G 3 65° 90% - - 62° 67.2° 64.5° - - -
6/27 2:30am 284 2 G 3 65° 89% - - 62° 67.2° 64.5° - - -
6/27 2:20am 283 3 G 4 66° 87% - - 62° 67.2° 64.5° - - -
6/27 2:10am 248 1 G 3 66° 89% - - 62° 67.2° 64.5° - - -
6/27 2:00am 270 0 G 1 66° 88% - - 62° 67.2° 64.5° - - -
6/27 1:50am 273 0 G 1 66° 87% - - 62° 67.2° 64.5° - - -
6/27 1:40am 258 1 G 2 66° 87% - - 62° 67.2° 64.5° - - -
6/27 1:30am 268 1 G 1 66° 88% - - 62° 67.2° 64.5° - - -
6/27 1:20am 279 1 G 2 66° 89% - - 63° 67.2° 64.5° - - -
6/27 1:10am 288 1 G 2 65° 91% - - 63° 67.2° 64.5° - - -
6/27 1:00am 184 1 G 2 65° 93% - - 63° 67.2° 64.5° - - -
6/27 12:50am 255 1 G 1 65° 94% - - 64° 67.2° 65° - - -
6/27 12:40am 305 2 G 2 66° 93% - - 64° 67.2° 65.3° - - -
6/27 12:30am 351 1 G 2 66° 91% - - 63° 67.2° 65.6° - - -
6/27 12:20am 242 1 G 2 66° 92% - - 64° 67.2° 65.6° - - -
6/27 12:10am 291 1 G 3 67° 90% - - 64° 67.2° 66.1° - - -
6/27 12:00am 302 3 G 5 67° 86% - - 63° 79.3° 60.2° - - -
6/26 11:50pm 270 3 G 5 68° 82% - - 62° 79.3° 60.2° - - -
6/26 11:40pm 265 2 G 3 68° 82% - - 63° 79.3° 60.2° - - -
6/26 11:30pm 262 2 G 3 69° 77% - - 62° 79.3° 60.2° - - -
6/26 11:20pm 271 1 G 2 70° 71% - - 60° 79.3° 60.2° - - -
6/26 11:10pm 319 1 G 2 72° 64% - - 59° 79.3° 60.2° - - -
6/26 11:00pm 129 0 G 1 72° 62% - - 58° 79.3° 60.2° - - -
6/26 10:50pm 224 2 G 3 70° 70% - - 60° 79.3° 60.2° - - -
6/26 10:40pm 270 2 G 4 70° 69% - - 60° 79.3° 60.2° - - -
6/26 10:30pm 135 3 G 5 70° 73% - - 61° 79.3° 60.2° - - -
6/26 10:20pm 140 3 G 5 69° 76% - - 61° 79.3° 60.2° - - -
6/26 10:10pm 133 4 G 5 67° 90% - - 64° 79.3° 60.2° - - -
6/26 10:00pm 107 2 G 4 66° 93% - - 64° 79.3° 60.2° - - -
6/26 9:50pm 86 1 G 3 66° 93% - - 64° 79.3° 60.2° - - -
6/26 9:40pm 81 1 G 1 66° 93% - - 64° 79.3° 60.2° - - -
6/26 9:30pm 20 0 G 1 67° 93% - - 64° 79.3° 60.2° - - -
6/26 9:20pm 305 1 G 3 67° 92% - - 64° 79.3° 60.2° - - -
6/26 9:10pm 296 2 G 4 67° 91% - - 64° 79.3° 60.2° - - -
6/26 9:00pm 281 2 G 5 67° 90% - - 64° 79.3° 60.2° - - -
6/26 8:50pm 287 3 G 5 67° 90% - - 64° 79.3° 60.2° - - -
6/26 8:40pm 291 3 G 5 67° 89% - - 64° 79.3° 60.2° - - -
6/26 8:30pm 289 4 G 6 68° 88% - - 64° 79.3° 60.2° - - -
6/26 8:20pm 280 4 G 7 68° 87% - - 64° 79.3° 60.2° - - -
6/26 8:10pm 289 3 G 5 69° 86% - - 64° 79.3° 60.2° - - -
6/26 8:00pm 299 4 G 6 70° 83% - - 64° 79.3° 60.2° - - -
6/26 7:50pm 296 4 G 6 71° 77% - - 64° 79.3° 60.2° - - -
6/26 7:40pm 289 3 G 5 72° 71% - - 63° 79.3° 60.2° - - -
6/26 7:30pm 287 4 G 5 74° 63% - - 60° 79.3° 60.2° - - -
6/26 7:20pm 289 3 G 5 75° 60% - - 60° 79.3° 60.2° - - -
6/26 7:10pm 304 3 G 4 75° 59% - - 60° 79.3° 60.2° - - -
6/26 7:00pm 299 3 G 5 75° 57% - - 59° 79.3° 60.2° - - -
6/26 6:50pm 296 5 G 6 76° 56% - - 59° 79.3° 60.2° - - -
6/26 6:40pm 289 5 G 7 76° 58% - - 60° 79.3° 60.2° - - -
6/26 6:30pm 280 6 G 8 76° 59% - - 60° 79.3° 60.2° - - -
6/26 6:20pm 283 5 G 8 75° 59% - - 60° 79.3° 60.2° - - -
6/26 6:10pm 278 6 G 9 75° 60% - - 60° 79.3° 60.2° - - -
6/26 6:00pm 285 6 G 9 75° 60% - - 60° 79.3° 60.2° - - -
6/26 5:50pm 287 7 G 9 76° 59% - - 60° 79.3° 60.2° - - -
6/26 5:40pm 285 7 G 10 76° 60% - - 61° 79.3° 60.2° - - -
6/26 5:30pm 290 7 G 10 76° 60% - - 61° 79.3° 60.2° - - -
6/26 5:20pm 301 7 G 10 76° 58% - - 60° 79.3° 60.2° - - -
6/26 5:10pm 299 6 G 11 78° 56% - - 60° 79.3° 60.2° - - -
6/26 5:00pm 299 6 G 10 78° 52% - - 58° 79.3° 60.2° - - -
6/26 4:50pm 286 9 G 12 76° 54% - - 58° 79.2° 60.2° - - -
6/26 4:40pm 287 9 G 13 76° 56% - - 59° 79.2° 60.2° - - -
6/26 4:30pm 283 8 G 12 77° 58% - - 61° 79.2° 60.2° - - -
6/26 4:20pm 297 7 G 10 77° 58% - - 61° 79.2° 60.2° - - -
6/26 4:10pm 293 6 G 9 77° 60% - - 62° 79.2° 60.2° - - -
6/26 4:00pm 287 6 G 9 77° 61% - - 62° 79.2° 60.2° - - -
6/26 3:50pm 279 8 G 11 75° 62% - - 61° 79.2° 60.2° - - -
6/26 3:40pm 287 8 G 11 76° 61% - - 62° 79.2° 60.2° - - -
6/26 3:30pm 287 9 G 13 76° 60% - - 61° 79.2° 60.2° - - -
6/26 3:20pm 313 7 G 11 77° 59% - - 61° 79.2° 60.2° - - -
6/26 3:10pm 312 7 G 11 77° 60% - - 62° 79.2° 60.2° - - -
6/26 3:00pm 299 7 G 10 76° 63% - - 62° 79.2° 60.2° - - -
6/26 2:50pm 289 8 G 12 76° 64% - - 63° 79.2° 60.2° - - -
6/26 2:40pm 307 9 G 13 75° 67% - - 63° 79.2° 60.2° - - -
6/26 2:30pm 304 8 G 13 75° 68% - - 64° 79.2° 60.2° - - -
6/26 2:20pm 307 9 G 13 75° 68% - - 63° 79.2° 60.2° - - -
6/26 2:10pm 307 9 G 15 75° 68% - - 63° 79.2° 60.2° - - -
6/26 2:00pm 298 9 G 14 75° 67% - - 63° 79.2° 60.2° - - -
6/26 1:50pm 309 10 G 15 75° 68% - - 63° 79.2° 60.2° - - -
6/26 1:40pm 314 10 G 15 75° 68% - - 64° 79.2° 60.2° - - -
6/26 1:30pm 315 10 G 14 75° 69% - - 64° 79.2° 60.2° - - -
6/26 1:20pm 306 10 G 14 75° 68% - - 64° 79.2° 60.2° - - -
6/26 1:10pm 318 9 G 13 76° 66% - - 64° 79.2° 60.2° - - -
6/26 1:00pm 312 10 G 14 75° 67% - - 63° 79.2° 60.2° - - -
6/26 12:50pm 305 9 G 14 77° 64% - - 63° 79.2° 60.2° - - -
6/26 12:40pm 288 7 G 13 78° 62% - - 64° 79.2° 60.2° - - -
6/26 12:30pm 263 5 G 9 78° 61% - - 63° 79.2° 60.2° - - -
6/26 12:20pm 258 4 G 8 77° 62% - - 63° 79° 60.2° - - -
6/26 12:10pm 248 5 G 9 77° 63% - - 63° 77.9° 60.2° - - -
6/26 12:00pm 245 4 G 8 76° 65% - - 63° 77.9° 60.2° - - -
6/26 11:50am 273 5 G 9 77° 65% - - 64° 77.9° 60.2° - - -
6/26 11:40am 241 6 G 9 74° 70% - - 64° 76.2° 60.2° - - -
6/26 11:30am 232 6 G 9 74° 69% - - 63° 76.2° 60.2° - - -
6/26 11:20am 246 6 G 10 74° 71% - - 64° 76.2° 60.2° - - -
6/26 11:10am 257 8 G 12 73° 73% - - 64° 76.2° 60.2° - - -
6/26 11:00am 246 9 G 12 73° 72% - - 63° 76.2° 60.2° - - -
6/26 10:50am 246 6 G 10 75° 68% - - 64° 76.2° 60.2° - - -
6/26 10:40am 303 8 G 14 74° 71% - - 64° 75.1° 60.2° - - -
6/26 10:30am 313 9 G 13 73° 73% - - 64° 74.8° 60.2° - - -
6/26 10:20am 317 9 G 13 73° 73% - - 64° 74.8° 60.2° - - -
6/26 10:10am 303 8 G 11 73° 72% - - 64° 74.8° 60.2° - - -
6/26 10:00am 294 7 G 10 73° 72% - - 64° 74.8° 60.2° - - -
6/26 9:50am 295 7 G 11 73° 71% - - 63° 74.8° 60.2° - - -
6/26 9:40am 295 6 G 9 74° 70% - - 63° 74.8° 60.2° - - -
6/26 9:30am 293 6 G 9 73° 72% - - 64° 74.8° 60.2° - - -
6/26 9:20am 299 5 G 8 74° 72% - - 64° 74.8° 60.2° - - -
6/26 9:10am 311 4 G 9 74° 72% - - 65° 74.7° 60.2° - - -
6/26 9:00am 313 3 G 5 74° 74% - - 65° 74.4° 60.2° - - -
6/26 8:50am 322 4 G 6 72° 75% - - 64° 73.2° 60.2° - - -
6/26 8:40am 336 2 G 5 71° 78% - - 64° 72.1° 60.2° - - -
6/26 8:30am 328 2 G 4 70° 81% - - 64° 71.5° 60.2° - - -
6/26 8:20am 328 1 G 3 69° 85% - - 64° 70.5° 60.2° - - -
6/26 8:10am 276 1 G 2 68° 87% - - 64° 68.8° 60.2° - - -
6/26 8:00am 360 1 G 2 67° 91% - - 64° 68.3° 60.2° - - -
6/26 7:50am 9 1 G 3 65° 95% - - 64° 66.1° 60.2° - - -
6/26 7:40am 323 1 G 2 64° 97% - - 63° 66° 60.2° - - -
6/26 7:30am 308 3 G 5 64° 97% - - 63° 66° 60.2° - - -
6/26 7:20am 312 3 G 4 64° 98% - - 63° 66° 60.2° - - -
6/26 7:10am 301 2 G 4 64° 98% - - 63° 66° 60.2° - - -
6/26 7:00am 278 2 G 3 63° 98% - - 63° 66° 60.2° - - -
6/26 6:50am 254 1 G 2 63° 98% - - 62° 66° 60.2° - - -
6/26 6:40am 269 1 G 2 63° 98% - - 63° 66° 60.2° - - -
6/26 6:30am 280 0 G 2 63° 99% - - 63° 66° 60.2° - - -
6/26 6:20am 88 0 G 1 62° 99% - - 62° 66° 60.2° - - -
6/26 6:10am 122 0 G 1 62° 99% - - 61° 66° 60.2° - - -
6/26 6:00am 91 1 G 2 61° 99% - - 61° 66° 60.2° - - -